sensor_id;sensor_type;location;lat;lon;timestamp;P1;durP1;ratioP1;P2;durP2;ratioP2
6547;SDS011;3307;52.416;16.862;2023-05-18T00:01:25;1.40;;;1.17;;
6547;SDS011;3307;52.416;16.862;2023-05-18T00:03:51;2.40;;;1.07;;
6547;SDS011;3307;52.416;16.862;2023-05-18T00:06:18;8.30;;;1.67;;
6547;SDS011;3307;52.416;16.862;2023-05-18T00:08:44;2.60;;;1.47;;
6547;SDS011;3307;52.416;16.862;2023-05-18T00:11:11;2.97;;;1.60;;
6547;SDS011;3307;52.416;16.862;2023-05-18T00:13:36;2.08;;;1.30;;
6547;SDS011;3307;52.416;16.862;2023-05-18T00:16:02;1.60;;;1.37;;
6547;SDS011;3307;52.416;16.862;2023-05-18T00:18:27;5.23;;;1.40;;
6547;SDS011;3307;52.416;16.862;2023-05-18T00:20:52;2.47;;;1.60;;
6547;SDS011;3307;52.416;16.862;2023-05-18T00:23:30;2.25;;;1.60;;
6547;SDS011;3307;52.416;16.862;2023-05-18T00:26:00;1.30;;;1.10;;
6547;SDS011;3307;52.416;16.862;2023-05-18T00:28:26;3.25;;;2.17;;
6547;SDS011;3307;52.416;16.862;2023-05-18T00:30:52;2.70;;;0.90;;
6547;SDS011;3307;52.416;16.862;2023-05-18T00:33:18;4.73;;;1.90;;
6547;SDS011;3307;52.416;16.862;2023-05-18T00:35:43;2.80;;;1.47;;
6547;SDS011;3307;52.416;16.862;2023-05-18T00:38:09;2.80;;;0.93;;
6547;SDS011;3307;52.416;16.862;2023-05-18T00:40:36;4.35;;;1.30;;
6547;SDS011;3307;52.416;16.862;2023-05-18T00:43:03;2.65;;;1.90;;
6547;SDS011;3307;52.416;16.862;2023-05-18T00:45:28;1.93;;;1.40;;
6547;SDS011;3307;52.416;16.862;2023-05-18T00:47:53;3.87;;;1.70;;
6547;SDS011;3307;52.416;16.862;2023-05-18T00:50:19;2.50;;;1.13;;
6547;SDS011;3307;52.416;16.862;2023-05-18T00:52:45;2.20;;;0.87;;
6547;SDS011;3307;52.416;16.862;2023-05-18T00:55:11;1.90;;;1.50;;
6547;SDS011;3307;52.416;16.862;2023-05-18T00:57:37;2.93;;;1.23;;
6547;SDS011;3307;52.416;16.862;2023-05-18T01:00:03;2.65;;;1.20;;
6547;SDS011;3307;52.416;16.862;2023-05-18T01:02:32;1.85;;;1.23;;
6547;SDS011;3307;52.416;16.862;2023-05-18T01:05:01;2.92;;;1.30;;
6547;SDS011;3307;52.416;16.862;2023-05-18T01:07:27;2.85;;;1.52;;
6547;SDS011;3307;52.416;16.862;2023-05-18T01:09:52;4.20;;;1.30;;
6547;SDS011;3307;52.416;16.862;2023-05-18T01:12:25;2.63;;;1.30;;
6547;SDS011;3307;52.416;16.862;2023-05-18T01:15:08;3.00;;;1.63;;
6547;SDS011;3307;52.416;16.862;2023-05-18T01:17:49;1.00;;;0.82;;
6547;SDS011;3307;52.416;16.862;2023-05-18T01:23:05;2.25;;;0.98;;
6547;SDS011;3307;52.416;16.862;2023-05-18T01:28:24;1.48;;;1.02;;
6547;SDS011;3307;52.416;16.862;2023-05-18T01:30:54;3.15;;;1.45;;
6547;SDS011;3307;52.416;16.862;2023-05-18T01:33:20;3.20;;;1.50;;
6547;SDS011;3307;52.416;16.862;2023-05-18T01:35:45;2.57;;;1.13;;
6547;SDS011;3307;52.416;16.862;2023-05-18T01:38:17;1.80;;;1.23;;
6547;SDS011;3307;52.416;16.862;2023-05-18T01:40:47;3.35;;;1.73;;
6547;SDS011;3307;52.416;16.862;2023-05-18T01:43:15;5.50;;;1.58;;
6547;SDS011;3307;52.416;16.862;2023-05-18T01:45:43;5.20;;;1.40;;
6547;SDS011;3307;52.416;16.862;2023-05-18T01:48:10;2.47;;;1.48;;
6547;SDS011;3307;52.416;16.862;2023-05-18T01:50:37;1.30;;;1.20;;
6547;SDS011;3307;52.416;16.862;2023-05-18T01:53:05;5.18;;;1.70;;
6547;SDS011;3307;52.416;16.862;2023-05-18T01:55:35;4.35;;;1.40;;
6547;SDS011;3307;52.416;16.862;2023-05-18T01:58:01;3.10;;;1.50;;
6547;SDS011;3307;52.416;16.862;2023-05-18T02:00:29;4.15;;;1.50;;
6547;SDS011;3307;52.416;16.862;2023-05-18T02:02:54;1.37;;;1.20;;
6547;SDS011;3307;52.416;16.862;2023-05-18T02:05:20;3.80;;;1.57;;
6547;SDS011;3307;52.416;16.862;2023-05-18T02:07:45;6.10;;;1.63;;
6547;SDS011;3307;52.416;16.862;2023-05-18T02:10:13;2.83;;;1.30;;
6547;SDS011;3307;52.416;16.862;2023-05-18T02:12:39;2.30;;;1.27;;
6547;SDS011;3307;52.416;16.862;2023-05-18T02:15:05;2.60;;;1.50;;
6547;SDS011;3307;52.416;16.862;2023-05-18T02:17:34;1.88;;;1.35;;
6547;SDS011;3307;52.416;16.862;2023-05-18T02:20:02;3.97;;;2.15;;
6547;SDS011;3307;52.416;16.862;2023-05-18T02:22:31;2.47;;;1.38;;
6547;SDS011;3307;52.416;16.862;2023-05-18T02:24:56;3.57;;;1.60;;
6547;SDS011;3307;52.416;16.862;2023-05-18T02:27:22;5.50;;;1.50;;
6547;SDS011;3307;52.416;16.862;2023-05-18T02:29:47;4.23;;;1.70;;
6547;SDS011;3307;52.416;16.862;2023-05-18T02:32:13;2.20;;;1.30;;
6547;SDS011;3307;52.416;16.862;2023-05-18T02:34:38;4.30;;;1.77;;
6547;SDS011;3307;52.416;16.862;2023-05-18T02:37:06;3.72;;;1.80;;
6547;SDS011;3307;52.416;16.862;2023-05-18T02:39:31;4.10;;;1.93;;
6547;SDS011;3307;52.416;16.862;2023-05-18T02:41:58;1.75;;;1.60;;
6547;SDS011;3307;52.416;16.862;2023-05-18T02:44:23;4.80;;;2.30;;
6547;SDS011;3307;52.416;16.862;2023-05-18T02:46:49;4.00;;;1.40;;
6547;SDS011;3307;52.416;16.862;2023-05-18T02:49:14;2.07;;;1.60;;
6547;SDS011;3307;52.416;16.862;2023-05-18T02:51:40;6.07;;;3.20;;
6547;SDS011;3307;52.416;16.862;2023-05-18T02:54:05;5.83;;;2.00;;
6547;SDS011;3307;52.416;16.862;2023-05-18T02:56:30;2.07;;;1.40;;
6547;SDS011;3307;52.416;16.862;2023-05-18T02:58:57;5.53;;;2.00;;
6547;SDS011;3307;52.416;16.862;2023-05-18T03:01:24;2.97;;;1.38;;
6547;SDS011;3307;52.416;16.862;2023-05-18T03:03:51;2.40;;;1.50;;
6547;SDS011;3307;52.416;16.862;2023-05-18T03:06:17;2.83;;;1.88;;
6547;SDS011;3307;52.416;16.862;2023-05-18T03:08:47;4.35;;;1.77;;
6547;SDS011;3307;52.416;16.862;2023-05-18T03:11:18;2.25;;;1.35;;
6547;SDS011;3307;52.416;16.862;2023-05-18T03:13:44;2.33;;;1.60;;
6547;SDS011;3307;52.416;16.862;2023-05-18T03:16:09;2.83;;;2.03;;
6547;SDS011;3307;52.416;16.862;2023-05-18T03:18:35;3.50;;;1.97;;
6547;SDS011;3307;52.416;16.862;2023-05-18T03:21:00;4.27;;;1.77;;
6547;SDS011;3307;52.416;16.862;2023-05-18T03:23:27;3.17;;;1.75;;
6547;SDS011;3307;52.416;16.862;2023-05-18T03:25:54;3.78;;;1.70;;
6547;SDS011;3307;52.416;16.862;2023-05-18T03:28:19;3.00;;;1.50;;
6547;SDS011;3307;52.416;16.862;2023-05-18T03:30:45;4.43;;;2.40;;
6547;SDS011;3307;52.416;16.862;2023-05-18T03:33:10;3.77;;;1.90;;
6547;SDS011;3307;52.416;16.862;2023-05-18T03:35:36;4.20;;;1.70;;
6547;SDS011;3307;52.416;16.862;2023-05-18T03:38:03;2.95;;;1.65;;
6547;SDS011;3307;52.416;16.862;2023-05-18T03:40:29;7.17;;;2.23;;
6547;SDS011;3307;52.416;16.862;2023-05-18T03:42:54;3.93;;;2.10;;
6547;SDS011;3307;52.416;16.862;2023-05-18T03:45:20;1.83;;;1.50;;
6547;SDS011;3307;52.416;16.862;2023-05-18T03:47:45;2.33;;;1.90;;
6547;SDS011;3307;52.416;16.862;2023-05-18T03:50:11;4.80;;;2.50;;
6547;SDS011;3307;52.416;16.862;2023-05-18T03:52:38;4.50;;;2.57;;
6547;SDS011;3307;52.416;16.862;2023-05-18T03:55:03;3.08;;;2.47;;
6547;SDS011;3307;52.416;16.862;2023-05-18T03:57:29;3.77;;;2.27;;
6547;SDS011;3307;52.416;16.862;2023-05-18T03:59:56;3.83;;;2.28;;
6547;SDS011;3307;52.416;16.862;2023-05-18T04:02:22;6.85;;;2.90;;
6547;SDS011;3307;52.416;16.862;2023-05-18T04:04:47;2.50;;;1.80;;
6547;SDS011;3307;52.416;16.862;2023-05-18T04:07:13;4.20;;;2.17;;
6547;SDS011;3307;52.416;16.862;2023-05-18T04:09:42;4.57;;;2.75;;
6547;SDS011;3307;52.416;16.862;2023-05-18T04:12:08;3.85;;;3.13;;
6547;SDS011;3307;52.416;16.862;2023-05-18T04:14:34;3.53;;;1.88;;
6547;SDS011;3307;52.416;16.862;2023-05-18T04:17:00;3.47;;;2.37;;
6547;SDS011;3307;52.416;16.862;2023-05-18T04:19:34;4.75;;;2.20;;
6547;SDS011;3307;52.416;16.862;2023-05-18T04:22:00;3.55;;;2.00;;
6547;SDS011;3307;52.416;16.862;2023-05-18T04:24:29;3.53;;;2.35;;
6547;SDS011;3307;52.416;16.862;2023-05-18T04:26:59;3.15;;;2.95;;
6547;SDS011;3307;52.416;16.862;2023-05-18T04:29:25;6.97;;;3.17;;
6547;SDS011;3307;52.416;16.862;2023-05-18T04:31:52;5.55;;;3.08;;
6547;SDS011;3307;52.416;16.862;2023-05-18T04:34:25;5.72;;;3.00;;
6547;SDS011;3307;52.416;16.862;2023-05-18T04:36:51;7.18;;;3.78;;
6547;SDS011;3307;52.416;16.862;2023-05-18T04:39:18;5.68;;;3.60;;
6547;SDS011;3307;52.416;16.862;2023-05-18T04:41:45;7.72;;;3.95;;
6547;SDS011;3307;52.416;16.862;2023-05-18T04:44:10;5.20;;;3.27;;
6547;SDS011;3307;52.416;16.862;2023-05-18T04:46:38;4.45;;;3.20;;
6547;SDS011;3307;52.416;16.862;2023-05-18T04:49:04;2.80;;;2.10;;
6547;SDS011;3307;52.416;16.862;2023-05-18T04:51:30;3.50;;;2.20;;
6547;SDS011;3307;52.416;16.862;2023-05-18T04:53:59;3.95;;;2.60;;
6547;SDS011;3307;52.416;16.862;2023-05-18T04:56:25;5.70;;;2.45;;
6547;SDS011;3307;52.416;16.862;2023-05-18T04:58:50;2.10;;;1.60;;
6547;SDS011;3307;52.416;16.862;2023-05-18T05:01:16;5.13;;;1.93;;
6547;SDS011;3307;52.416;16.862;2023-05-18T05:03:42;3.40;;;1.97;;
6547;SDS011;3307;52.416;16.862;2023-05-18T05:06:08;3.00;;;1.70;;
6547;SDS011;3307;52.416;16.862;2023-05-18T05:08:33;3.87;;;1.43;;
6547;SDS011;3307;52.416;16.862;2023-05-18T05:10:59;2.80;;;1.73;;
6547;SDS011;3307;52.416;16.862;2023-05-18T05:13:25;2.42;;;1.77;;
6547;SDS011;3307;52.416;16.862;2023-05-18T05:15:50;2.40;;;1.30;;
6547;SDS011;3307;52.416;16.862;2023-05-18T05:18:16;1.33;;;0.90;;
6547;SDS011;3307;52.416;16.862;2023-05-18T05:20:41;4.00;;;1.20;;
6547;SDS011;3307;52.416;16.862;2023-05-18T05:23:07;1.83;;;1.37;;
6547;SDS011;3307;52.416;16.862;2023-05-18T05:25:32;1.83;;;1.30;;
6547;SDS011;3307;52.416;16.862;2023-05-18T05:27:58;1.50;;;1.20;;
6547;SDS011;3307;52.416;16.862;2023-05-18T05:30:23;5.63;;;1.20;;
6547;SDS011;3307;52.416;16.862;2023-05-18T05:32:48;2.63;;;1.07;;
6547;SDS011;3307;52.416;16.862;2023-05-18T05:35:14;3.70;;;1.17;;
6547;SDS011;3307;52.416;16.862;2023-05-18T05:37:39;1.90;;;1.50;;
6547;SDS011;3307;52.416;16.862;2023-05-18T05:40:05;1.20;;;1.10;;
6547;SDS011;3307;52.416;16.862;2023-05-18T05:42:31;1.27;;;1.08;;
6547;SDS011;3307;52.416;16.862;2023-05-18T05:44:57;7.60;;;1.83;;
6547;SDS011;3307;52.416;16.862;2023-05-18T05:47:22;2.73;;;1.13;;
6547;SDS011;3307;52.416;16.862;2023-05-18T05:49:48;0.90;;;0.70;;
6547;SDS011;3307;52.416;16.862;2023-05-18T05:52:13;1.33;;;0.80;;
6547;SDS011;3307;52.416;16.862;2023-05-18T05:54:39;5.93;;;0.90;;
6547;SDS011;3307;52.416;16.862;2023-05-18T05:57:05;2.47;;;0.80;;
6547;SDS011;3307;52.416;16.862;2023-05-18T05:59:30;1.63;;;0.90;;
6547;SDS011;3307;52.416;16.862;2023-05-18T06:01:56;2.97;;;1.43;;
6547;SDS011;3307;52.416;16.862;2023-05-18T06:04:21;1.87;;;0.80;;
6547;SDS011;3307;52.416;16.862;2023-05-18T06:06:47;2.87;;;1.10;;
6547;SDS011;3307;52.416;16.862;2023-05-18T06:09:12;2.40;;;1.23;;
6547;SDS011;3307;52.416;16.862;2023-05-18T06:11:38;0.90;;;0.77;;
6547;SDS011;3307;52.416;16.862;2023-05-18T06:14:03;1.33;;;1.00;;
6547;SDS011;3307;52.416;16.862;2023-05-18T06:16:29;6.03;;;1.33;;
6547;SDS011;3307;52.416;16.862;2023-05-18T06:18:54;1.00;;;0.70;;
6547;SDS011;3307;52.416;16.862;2023-05-18T06:21:20;2.10;;;0.60;;
6547;SDS011;3307;52.416;16.862;2023-05-18T06:23:45;1.00;;;0.63;;
6547;SDS011;3307;52.416;16.862;2023-05-18T06:26:11;1.00;;;0.53;;
6547;SDS011;3307;52.416;16.862;2023-05-18T06:28:36;5.07;;;1.10;;
6547;SDS011;3307;52.416;16.862;2023-05-18T06:31:02;0.73;;;0.73;;
6547;SDS011;3307;52.416;16.862;2023-05-18T06:33:27;1.27;;;0.83;;
6547;SDS011;3307;52.416;16.862;2023-05-18T06:35:53;1.60;;;0.90;;
6547;SDS011;3307;52.416;16.862;2023-05-18T06:38:18;0.97;;;0.60;;
6547;SDS011;3307;52.416;16.862;2023-05-18T06:40:44;1.90;;;1.10;;
6547;SDS011;3307;52.416;16.862;2023-05-18T06:43:09;1.33;;;0.90;;
6547;SDS011;3307;52.416;16.862;2023-05-18T06:45:35;1.33;;;0.70;;
6547;SDS011;3307;52.416;16.862;2023-05-18T06:48:00;0.80;;;0.77;;
6547;SDS011;3307;52.416;16.862;2023-05-18T06:50:26;1.07;;;0.60;;
6547;SDS011;3307;52.416;16.862;2023-05-18T06:52:51;1.17;;;0.73;;
6547;SDS011;3307;52.416;16.862;2023-05-18T06:55:17;0.70;;;0.40;;
6547;SDS011;3307;52.416;16.862;2023-05-18T06:57:43;0.83;;;0.73;;
6547;SDS011;3307;52.416;16.862;2023-05-18T07:00:08;0.67;;;0.53;;
6547;SDS011;3307;52.416;16.862;2023-05-18T07:02:37;1.23;;;0.73;;
6547;SDS011;3307;52.416;16.862;2023-05-18T07:05:04;4.30;;;0.82;;
6547;SDS011;3307;52.416;16.862;2023-05-18T07:07:32;1.33;;;0.90;;
6547;SDS011;3307;52.416;16.862;2023-05-18T07:09:58;2.80;;;0.80;;
6547;SDS011;3307;52.416;16.862;2023-05-18T07:12:23;1.43;;;0.90;;
6547;SDS011;3307;52.416;16.862;2023-05-18T07:14:50;0.80;;;0.50;;
6547;SDS011;3307;52.416;16.862;2023-05-18T07:17:16;1.10;;;0.60;;
6547;SDS011;3307;52.416;16.862;2023-05-18T07:19:41;2.20;;;1.03;;
6547;SDS011;3307;52.416;16.862;2023-05-18T07:22:07;0.70;;;0.50;;
6547;SDS011;3307;52.416;16.862;2023-05-18T07:24:32;1.20;;;0.70;;
6547;SDS011;3307;52.416;16.862;2023-05-18T07:26:58;1.00;;;0.67;;
6547;SDS011;3307;52.416;16.862;2023-05-18T07:29:23;1.77;;;0.50;;
6547;SDS011;3307;52.416;16.862;2023-05-18T07:31:49;3.43;;;0.60;;
6547;SDS011;3307;52.416;16.862;2023-05-18T07:34:14;1.13;;;0.90;;
6547;SDS011;3307;52.416;16.862;2023-05-18T07:36:40;3.00;;;1.20;;
6547;SDS011;3307;52.416;16.862;2023-05-18T07:39:05;1.10;;;0.80;;
6547;SDS011;3307;52.416;16.862;2023-05-18T07:41:30;1.27;;;0.80;;
6547;SDS011;3307;52.416;16.862;2023-05-18T07:43:56;1.93;;;0.80;;
6547;SDS011;3307;52.416;16.862;2023-05-18T07:46:21;2.40;;;0.80;;
6547;SDS011;3307;52.416;16.862;2023-05-18T07:48:47;2.70;;;0.70;;
6547;SDS011;3307;52.416;16.862;2023-05-18T07:51:12;1.67;;;1.23;;
6547;SDS011;3307;52.416;16.862;2023-05-18T07:53:38;1.83;;;0.50;;
6547;SDS011;3307;52.416;16.862;2023-05-18T07:56:05;0.80;;;0.80;;
6547;SDS011;3307;52.416;16.862;2023-05-18T07:58:31;0.95;;;0.60;;
6547;SDS011;3307;52.416;16.862;2023-05-18T08:00:57;3.97;;;0.75;;
6547;SDS011;3307;52.416;16.862;2023-05-18T08:03:22;1.23;;;0.80;;
6547;SDS011;3307;52.416;16.862;2023-05-18T08:05:48;2.40;;;1.00;;
6547;SDS011;3307;52.416;16.862;2023-05-18T08:08:13;1.50;;;0.77;;
6547;SDS011;3307;52.416;16.862;2023-05-18T08:10:39;2.87;;;0.80;;
6547;SDS011;3307;52.416;16.862;2023-05-18T08:13:05;1.85;;;0.70;;
6547;SDS011;3307;52.416;16.862;2023-05-18T08:15:31;0.75;;;0.52;;
6547;SDS011;3307;52.416;16.862;2023-05-18T08:17:57;0.97;;;0.60;;
6547;SDS011;3307;52.416;16.862;2023-05-18T08:20:22;1.07;;;0.50;;
6547;SDS011;3307;52.416;16.862;2023-05-18T08:22:49;0.65;;;0.52;;
6547;SDS011;3307;52.416;16.862;2023-05-18T08:25:14;1.57;;;0.70;;
6547;SDS011;3307;52.416;16.862;2023-05-18T08:27:40;0.50;;;0.40;;
6547;SDS011;3307;52.416;16.862;2023-05-18T08:30:05;1.83;;;0.60;;
6547;SDS011;3307;52.416;16.862;2023-05-18T08:32:32;0.70;;;0.50;;
6547;SDS011;3307;52.416;16.862;2023-05-18T08:35:01;0.77;;;0.50;;
6547;SDS011;3307;52.416;16.862;2023-05-18T08:37:30;0.77;;;0.50;;
6547;SDS011;3307;52.416;16.862;2023-05-18T08:39:55;0.90;;;0.63;;
6547;SDS011;3307;52.416;16.862;2023-05-18T08:45:01;1.02;;;0.45;;
6547;SDS011;3307;52.416;16.862;2023-05-18T08:47:29;4.30;;;0.80;;
6547;SDS011;3307;52.416;16.862;2023-05-18T08:49:54;2.77;;;2.07;;
6547;SDS011;3307;52.416;16.862;2023-05-18T08:52:21;2.20;;;1.50;;
6547;SDS011;3307;52.416;16.862;2023-05-18T08:54:51;0.80;;;0.60;;
6547;SDS011;3307;52.416;16.862;2023-05-18T08:57:17;2.00;;;1.80;;
6547;SDS011;3307;52.416;16.862;2023-05-18T08:59:44;4.00;;;3.08;;
6547;SDS011;3307;52.416;16.862;2023-05-18T09:02:10;1.33;;;0.70;;
6547;SDS011;3307;52.416;16.862;2023-05-18T09:04:37;1.13;;;0.50;;
6547;SDS011;3307;52.416;16.862;2023-05-18T09:07:03;1.57;;;0.50;;
6547;SDS011;3307;52.416;16.862;2023-05-18T09:09:29;1.30;;;1.10;;
6547;SDS011;3307;52.416;16.862;2023-05-18T09:11:55;3.63;;;0.70;;
6547;SDS011;3307;52.416;16.862;2023-05-18T09:14:20;1.57;;;1.10;;
6547;SDS011;3307;52.416;16.862;2023-05-18T09:16:50;1.35;;;0.80;;
6547;SDS011;3307;52.416;16.862;2023-05-18T09:19:18;1.00;;;0.65;;
6547;SDS011;3307;52.416;16.862;2023-05-18T09:21:44;0.80;;;0.60;;
6547;SDS011;3307;52.416;16.862;2023-05-18T09:24:09;0.63;;;0.50;;
6547;SDS011;3307;52.416;16.862;2023-05-18T09:26:35;0.60;;;0.40;;
6547;SDS011;3307;52.416;16.862;2023-05-18T09:29:02;1.88;;;0.77;;
6547;SDS011;3307;52.416;16.862;2023-05-18T09:31:39;0.65;;;0.50;;
6547;SDS011;3307;52.416;16.862;2023-05-18T09:34:05;2.63;;;0.50;;
6547;SDS011;3307;52.416;16.862;2023-05-18T09:36:30;0.70;;;0.50;;
6547;SDS011;3307;52.416;16.862;2023-05-18T09:38:58;0.70;;;0.65;;
6547;SDS011;3307;52.416;16.862;2023-05-18T09:41:24;1.00;;;0.60;;
6547;SDS011;3307;52.416;16.862;2023-05-18T09:43:51;1.20;;;0.77;;
6547;SDS011;3307;52.416;16.862;2023-05-18T09:46:16;1.03;;;0.60;;
6547;SDS011;3307;52.416;16.862;2023-05-18T09:48:46;1.50;;;0.70;;
6547;SDS011;3307;52.416;16.862;2023-05-18T09:51:13;1.55;;;0.60;;
6547;SDS011;3307;52.416;16.862;2023-05-18T09:53:42;0.88;;;0.60;;
6547;SDS011;3307;52.416;16.862;2023-05-18T09:56:14;1.83;;;0.90;;
6547;SDS011;3307;52.416;16.862;2023-05-18T09:58:41;2.35;;;1.00;;
6547;SDS011;3307;52.416;16.862;2023-05-18T10:01:07;1.23;;;0.50;;
6547;SDS011;3307;52.416;16.862;2023-05-18T10:03:33;0.93;;;0.77;;
6547;SDS011;3307;52.416;16.862;2023-05-18T10:06:05;1.10;;;0.77;;
6547;SDS011;3307;52.416;16.862;2023-05-18T10:08:32;1.08;;;0.98;;
6547;SDS011;3307;52.416;16.862;2023-05-18T10:10:58;1.23;;;0.70;;
6547;SDS011;3307;52.416;16.862;2023-05-18T10:13:25;1.67;;;0.70;;
6547;SDS011;3307;52.416;16.862;2023-05-18T10:15:53;0.82;;;0.50;;
6547;SDS011;3307;52.416;16.862;2023-05-18T10:18:21;1.45;;;0.73;;
6547;SDS011;3307;52.416;16.862;2023-05-18T10:20:47;1.70;;;0.85;;
6547;SDS011;3307;52.416;16.862;2023-05-18T10:23:13;1.13;;;0.57;;
6547;SDS011;3307;52.416;16.862;2023-05-18T10:25:40;1.08;;;0.60;;
6547;SDS011;3307;52.416;16.862;2023-05-18T10:28:06;0.90;;;0.65;;
6547;SDS011;3307;52.416;16.862;2023-05-18T10:30:34;0.95;;;0.60;;
6547;SDS011;3307;52.416;16.862;2023-05-18T10:33:00;1.90;;;0.83;;
6547;SDS011;3307;52.416;16.862;2023-05-18T10:35:27;6.25;;;0.90;;
6547;SDS011;3307;52.416;16.862;2023-05-18T10:37:52;1.10;;;0.80;;
6547;SDS011;3307;52.416;16.862;2023-05-18T10:40:19;1.00;;;0.90;;
6547;SDS011;3307;52.416;16.862;2023-05-18T10:42:45;1.03;;;0.67;;
6547;SDS011;3307;52.416;16.862;2023-05-18T10:45:11;1.43;;;0.80;;
6547;SDS011;3307;52.416;16.862;2023-05-18T10:47:36;1.50;;;0.83;;
6547;SDS011;3307;52.416;16.862;2023-05-18T10:50:03;1.30;;;1.00;;
6547;SDS011;3307;52.416;16.862;2023-05-18T10:52:30;2.37;;;1.50;;
6547;SDS011;3307;52.416;16.862;2023-05-18T10:54:57;1.60;;;0.80;;
6547;SDS011;3307;52.416;16.862;2023-05-18T10:57:24;1.13;;;0.67;;
6547;SDS011;3307;52.416;16.862;2023-05-18T10:59:51;3.67;;;0.67;;
6547;SDS011;3307;52.416;16.862;2023-05-18T11:02:17;1.07;;;0.97;;
6547;SDS011;3307;52.416;16.862;2023-05-18T11:04:44;1.10;;;0.70;;
6547;SDS011;3307;52.416;16.862;2023-05-18T11:07:10;0.97;;;0.57;;
6547;SDS011;3307;52.416;16.862;2023-05-18T11:09:37;1.20;;;0.80;;
6547;SDS011;3307;52.416;16.862;2023-05-18T11:12:05;0.73;;;0.73;;
6547;SDS011;3307;52.416;16.862;2023-05-18T11:14:36;1.10;;;0.90;;
6547;SDS011;3307;52.416;16.862;2023-05-18T11:27:59;2.80;;;0.90;;
6547;SDS011;3307;52.416;16.862;2023-05-18T11:30:27;3.23;;;0.73;;
6547;SDS011;3307;52.416;16.862;2023-05-18T11:33:09;1.30;;;0.60;;
6547;SDS011;3307;52.416;16.862;2023-05-18T11:44:01;0.80;;;0.50;;
6547;SDS011;3307;52.416;16.862;2023-05-18T11:46:31;0.77;;;0.53;;
6547;SDS011;3307;52.416;16.862;2023-05-18T11:49:01;1.03;;;0.53;;
6547;SDS011;3307;52.416;16.862;2023-05-18T11:51:29;0.80;;;0.50;;
6547;SDS011;3307;52.416;16.862;2023-05-18T11:53:56;1.43;;;0.60;;
6547;SDS011;3307;52.416;16.862;2023-05-18T11:56:23;2.00;;;0.77;;
6547;SDS011;3307;52.416;16.862;2023-05-18T12:01:40;0.90;;;0.77;;
6547;SDS011;3307;52.416;16.862;2023-05-18T12:04:07;1.40;;;0.87;;
6547;SDS011;3307;52.416;16.862;2023-05-18T12:06:33;2.50;;;0.70;;
6547;SDS011;3307;52.416;16.862;2023-05-18T12:08:58;0.70;;;0.50;;
6547;SDS011;3307;52.416;16.862;2023-05-18T12:11:24;2.30;;;0.97;;
6547;SDS011;3307;52.416;16.862;2023-05-18T12:13:50;0.80;;;0.70;;
6547;SDS011;3307;52.416;16.862;2023-05-18T12:16:16;1.33;;;0.93;;
6547;SDS011;3307;52.416;16.862;2023-05-18T12:18:47;1.30;;;0.77;;
6547;SDS011;3307;52.416;16.862;2023-05-18T12:21:13;1.90;;;0.70;;
6547;SDS011;3307;52.416;16.862;2023-05-18T12:23:41;0.97;;;0.87;;
6547;SDS011;3307;52.416;16.862;2023-05-18T12:26:06;0.93;;;0.67;;
6547;SDS011;3307;52.416;16.862;2023-05-18T12:28:32;0.90;;;0.67;;
6547;SDS011;3307;52.416;16.862;2023-05-18T12:30:57;1.23;;;0.80;;
6547;SDS011;3307;52.416;16.862;2023-05-18T12:33:23;1.90;;;0.70;;
6547;SDS011;3307;52.416;16.862;2023-05-18T12:35:48;1.70;;;0.60;;
6547;SDS011;3307;52.416;16.862;2023-05-18T12:38:15;1.80;;;0.50;;
6547;SDS011;3307;52.416;16.862;2023-05-18T12:40:41;0.87;;;0.50;;
6547;SDS011;3307;52.416;16.862;2023-05-18T12:43:10;1.03;;;0.90;;
6547;SDS011;3307;52.416;16.862;2023-05-18T12:45:36;1.03;;;0.50;;
6547;SDS011;3307;52.416;16.862;2023-05-18T12:48:10;0.90;;;0.77;;
6547;SDS011;3307;52.416;16.862;2023-05-18T12:50:46;1.20;;;1.00;;
6547;SDS011;3307;52.416;16.862;2023-05-18T12:53:12;1.40;;;0.60;;
6547;SDS011;3307;52.416;16.862;2023-05-18T12:55:37;1.33;;;0.80;;
6547;SDS011;3307;52.416;16.862;2023-05-18T12:58:04;1.20;;;0.70;;
6547;SDS011;3307;52.416;16.862;2023-05-18T13:00:41;3.53;;;0.77;;
6547;SDS011;3307;52.416;16.862;2023-05-18T13:03:09;1.47;;;0.90;;
6547;SDS011;3307;52.416;16.862;2023-05-18T13:05:39;1.77;;;0.80;;
6547;SDS011;3307;52.416;16.862;2023-05-18T13:08:06;0.90;;;0.63;;
6547;SDS011;3307;52.416;16.862;2023-05-18T13:10:31;0.97;;;0.77;;
6547;SDS011;3307;52.416;16.862;2023-05-18T13:12:57;1.47;;;0.90;;
6547;SDS011;3307;52.416;16.862;2023-05-18T13:15:27;2.43;;;0.70;;
6547;SDS011;3307;52.416;16.862;2023-05-18T13:18:09;0.80;;;0.63;;
6547;SDS011;3307;52.416;16.862;2023-05-18T13:20:45;1.13;;;0.70;;
6547;SDS011;3307;52.416;16.862;2023-05-18T13:23:15;1.40;;;0.63;;
6547;SDS011;3307;52.416;16.862;2023-05-18T13:25:41;0.50;;;0.47;;
6547;SDS011;3307;52.416;16.862;2023-05-18T13:28:08;1.07;;;0.60;;
6547;SDS011;3307;52.416;16.862;2023-05-18T13:30:34;0.60;;;0.50;;
6547;SDS011;3307;52.416;16.862;2023-05-18T13:33:00;2.63;;;1.10;;
6547;SDS011;3307;52.416;16.862;2023-05-18T13:35:26;1.33;;;0.80;;
6547;SDS011;3307;52.416;16.862;2023-05-18T13:37:52;1.30;;;0.90;;
6547;SDS011;3307;52.416;16.862;2023-05-18T13:40:18;1.30;;;0.90;;
6547;SDS011;3307;52.416;16.862;2023-05-18T13:42:44;1.63;;;0.93;;
6547;SDS011;3307;52.416;16.862;2023-05-18T13:45:10;2.43;;;0.83;;
6547;SDS011;3307;52.416;16.862;2023-05-18T13:47:37;1.03;;;0.50;;
6547;SDS011;3307;52.416;16.862;2023-05-18T13:50:02;1.03;;;0.97;;
6547;SDS011;3307;52.416;16.862;2023-05-18T13:52:29;1.27;;;0.73;;
6547;SDS011;3307;52.416;16.862;2023-05-18T13:54:55;1.23;;;0.60;;
6547;SDS011;3307;52.416;16.862;2023-05-18T13:57:20;1.17;;;0.70;;
6547;SDS011;3307;52.416;16.862;2023-05-18T13:59:47;2.40;;;1.10;;
6547;SDS011;3307;52.416;16.862;2023-05-18T14:02:13;1.40;;;0.70;;
6547;SDS011;3307;52.416;16.862;2023-05-18T14:04:39;1.23;;;0.80;;
6547;SDS011;3307;52.416;16.862;2023-05-18T14:07:05;6.97;;;1.10;;
6547;SDS011;3307;52.416;16.862;2023-05-18T14:09:30;1.70;;;1.00;;
6547;SDS011;3307;52.416;16.862;2023-05-18T14:11:55;1.93;;;0.70;;
6547;SDS011;3307;52.416;16.862;2023-05-18T14:14:22;4.13;;;1.00;;
6547;SDS011;3307;52.416;16.862;2023-05-18T14:16:47;1.43;;;0.90;;
6547;SDS011;3307;52.416;16.862;2023-05-18T14:19:13;1.20;;;0.83;;
6547;SDS011;3307;52.416;16.862;2023-05-18T14:21:38;1.10;;;0.90;;
6547;SDS011;3307;52.416;16.862;2023-05-18T14:24:04;1.30;;;1.00;;
6547;SDS011;3307;52.416;16.862;2023-05-18T14:26:32;2.23;;;0.87;;
6547;SDS011;3307;52.416;16.862;2023-05-18T14:28:57;1.50;;;1.20;;
6547;SDS011;3307;52.416;16.862;2023-05-18T14:31:23;1.43;;;1.00;;
6547;SDS011;3307;52.416;16.862;2023-05-18T14:33:48;1.57;;;1.20;;
6547;SDS011;3307;52.416;16.862;2023-05-18T14:36:14;4.53;;;2.87;;
6547;SDS011;3307;52.416;16.862;2023-05-18T14:38:39;3.07;;;1.27;;
6547;SDS011;3307;52.416;16.862;2023-05-18T14:41:06;0.80;;;0.60;;
6547;SDS011;3307;52.416;16.862;2023-05-18T14:43:31;0.90;;;0.80;;
6547;SDS011;3307;52.416;16.862;2023-05-18T14:45:56;1.27;;;0.80;;
6547;SDS011;3307;52.416;16.862;2023-05-18T14:48:22;2.23;;;0.77;;
6547;SDS011;3307;52.416;16.862;2023-05-18T14:50:47;1.30;;;1.17;;
6547;SDS011;3307;52.416;16.862;2023-05-18T14:53:12;1.00;;;0.70;;
6547;SDS011;3307;52.416;16.862;2023-05-18T14:55:38;1.07;;;0.80;;
6547;SDS011;3307;52.416;16.862;2023-05-18T14:58:03;4.23;;;1.00;;
6547;SDS011;3307;52.416;16.862;2023-05-18T15:00:30;1.17;;;1.00;;
6547;SDS011;3307;52.416;16.862;2023-05-18T15:02:55;1.30;;;1.07;;
6547;SDS011;3307;52.416;16.862;2023-05-18T15:05:21;1.57;;;1.13;;
6547;SDS011;3307;52.416;16.862;2023-05-18T15:07:46;1.27;;;1.00;;
6547;SDS011;3307;52.416;16.862;2023-05-18T15:10:11;2.20;;;1.20;;
6547;SDS011;3307;52.416;16.862;2023-05-18T15:12:37;3.17;;;1.60;;
6547;SDS011;3307;52.416;16.862;2023-05-18T15:15:02;1.07;;;0.80;;
6547;SDS011;3307;52.416;16.862;2023-05-18T15:17:28;2.30;;;1.40;;
6547;SDS011;3307;52.416;16.862;2023-05-18T15:19:54;1.50;;;0.93;;
6547;SDS011;3307;52.416;16.862;2023-05-18T15:22:19;1.70;;;0.90;;
6547;SDS011;3307;52.416;16.862;2023-05-18T15:24:44;1.87;;;1.10;;
6547;SDS011;3307;52.416;16.862;2023-05-18T15:27:10;3.10;;;1.40;;